sensor_id;sensor_type;location;lat;lon;timestamp;pressure;altitude;pressure_sealevel;temperature;humidity
71915;BME280;60387;49.994;14.660;2023-02-19T00:00:38;97750.53;;;13.46;55.37
71915;BME280;60387;49.994;14.660;2023-02-19T00:03:11;97753.56;;;13.45;55.11
71915;BME280;60387;49.994;14.660;2023-02-19T00:05:44;97749.44;;;13.39;55.42
71915;BME280;60387;49.994;14.660;2023-02-19T00:08:18;97734.22;;;13.38;55.32
71915;BME280;60387;49.994;14.660;2023-02-19T00:10:51;97731.34;;;13.34;55.43
71915;BME280;60387;49.994;14.660;2023-02-19T00:13:24;97734.38;;;13.33;55.76
71915;BME280;60387;49.994;14.660;2023-02-19T00:15:57;97741.22;;;13.30;55.61
71915;BME280;60387;49.994;14.660;2023-02-19T00:18:37;97737.56;;;13.26;56.04
71915;BME280;60387;49.994;14.660;2023-02-19T00:21:11;97715.28;;;13.24;55.86
71915;BME280;60387;49.994;14.660;2023-02-19T00:23:48;97699.63;;;13.21;56.63
71915;BME280;60387;49.994;14.660;2023-02-19T00:26:22;97717.19;;;13.15;56.99
71915;BME280;60387;49.994;14.660;2023-02-19T00:28:56;97706.50;;;13.10;56.81
71915;BME280;60387;49.994;14.660;2023-02-19T00:31:31;97713.84;;;13.10;57.28
71915;BME280;60387;49.994;14.660;2023-02-19T00:34:05;97717.50;;;13.05;57.07
71915;BME280;60387;49.994;14.660;2023-02-19T00:36:40;97722.16;;;13.05;56.82
71915;BME280;60387;49.994;14.660;2023-02-19T00:39:15;97713.50;;;13.03;56.98
71915;BME280;60387;49.994;14.660;2023-02-19T00:41:48;97722.00;;;13.01;57.21
71915;BME280;60387;49.994;14.660;2023-02-19T00:44:21;97723.41;;;12.99;56.83
71915;BME280;60387;49.994;14.660;2023-02-19T00:46:55;97711.25;;;12.96;56.76
71915;BME280;60387;49.994;14.660;2023-02-19T00:49:28;97719.88;;;12.98;57.06
71915;BME280;60387;49.994;14.660;2023-02-19T00:52:01;97705.81;;;12.96;57.03
71915;BME280;60387;49.994;14.660;2023-02-19T00:54:34;97699.91;;;12.94;56.95
71915;BME280;60387;49.994;14.660;2023-02-19T00:57:08;97683.59;;;12.94;57.14
71915;BME280;60387;49.994;14.660;2023-02-19T00:59:41;97694.47;;;12.94;56.60
71915;BME280;60387;49.994;14.660;2023-02-19T01:02:14;97683.50;;;12.86;56.98
71915;BME280;60387;49.994;14.660;2023-02-19T01:04:48;97678.75;;;12.91;57.21
71915;BME280;60387;49.994;14.660;2023-02-19T01:07:21;97677.78;;;12.87;57.19
71915;BME280;60387;49.994;14.660;2023-02-19T01:09:54;97677.00;;;12.87;57.08
71915;BME280;60387;49.994;14.660;2023-02-19T01:12:27;97685.44;;;12.85;57.04
71915;BME280;60387;49.994;14.660;2023-02-19T01:15:01;97679.38;;;12.80;57.11
71915;BME280;60387;49.994;14.660;2023-02-19T01:17:35;97681.09;;;12.76;57.22
71915;BME280;60387;49.994;14.660;2023-02-19T01:20:09;97690.69;;;12.73;57.66
71915;BME280;60387;49.994;14.660;2023-02-19T01:22:42;97694.03;;;12.71;57.55
71915;BME280;60387;49.994;14.660;2023-02-19T01:25:15;97683.00;;;12.67;57.64
71915;BME280;60387;49.994;14.660;2023-02-19T01:27:49;97687.66;;;12.67;57.83
71915;BME280;60387;49.994;14.660;2023-02-19T01:30:22;97673.06;;;12.63;57.85
71915;BME280;60387;49.994;14.660;2023-02-19T01:32:55;97681.69;;;12.65;57.48
71915;BME280;60387;49.994;14.660;2023-02-19T01:35:29;97675.47;;;12.64;57.71
71915;BME280;60387;49.994;14.660;2023-02-19T01:38:02;97665.41;;;12.65;57.43
71915;BME280;60387;49.994;14.660;2023-02-19T01:40:36;97660.28;;;12.63;57.62
71915;BME280;60387;49.994;14.660;2023-02-19T01:43:15;97660.78;;;12.65;57.80
71915;BME280;60387;49.994;14.660;2023-02-19T01:45:49;97631.97;;;12.56;57.72
71915;BME280;60387;49.994;14.660;2023-02-19T01:48:26;97639.34;;;12.64;57.51
71915;BME280;60387;49.994;14.660;2023-02-19T01:51:09;97641.75;;;12.65;57.29
71915;BME280;60387;49.994;14.660;2023-02-19T01:53:46;97635.50;;;12.65;57.70
71915;BME280;60387;49.994;14.660;2023-02-19T01:56:22;97632.78;;;12.65;57.48
71915;BME280;60387;49.994;14.660;2023-02-19T01:58:57;97626.25;;;12.66;57.27
71915;BME280;60387;49.994;14.660;2023-02-19T02:01:32;97625.91;;;12.67;57.44
71915;BME280;60387;49.994;14.660;2023-02-19T02:04:07;97621.78;;;12.70;58.25
71915;BME280;60387;49.994;14.660;2023-02-19T02:06:51;97623.69;;;12.69;57.85
71915;BME280;60387;49.994;14.660;2023-02-19T02:09:27;97620.97;;;12.69;57.77
71915;BME280;60387;49.994;14.660;2023-02-19T02:12:01;97612.03;;;12.69;57.71
71915;BME280;60387;49.994;14.660;2023-02-19T02:14:36;97604.66;;;12.69;57.97
71915;BME280;60387;49.994;14.660;2023-02-19T02:17:24;97600.34;;;12.68;57.95
71915;BME280;60387;49.994;14.660;2023-02-19T02:23:15;97603.41;;;12.75;58.04
71915;BME280;60387;49.994;14.660;2023-02-19T02:28:52;97592.34;;;12.72;57.72
71915;BME280;60387;49.994;14.660;2023-02-19T02:32:04;97583.91;;;12.73;58.58
71915;BME280;60387;49.994;14.660;2023-02-19T02:34:49;97582.91;;;12.69;57.88
71915;BME280;60387;49.994;14.660;2023-02-19T02:37:27;97575.44;;;12.75;58.13
71915;BME280;60387;49.994;14.660;2023-02-19T02:40:06;97572.22;;;12.73;57.66
71915;BME280;60387;49.994;14.660;2023-02-19T02:42:42;97581.34;;;12.77;57.89
71915;BME280;60387;49.994;14.660;2023-02-19T02:47:53;97553.34;;;12.76;57.97
71915;BME280;60387;49.994;14.660;2023-02-19T02:50:33;97549.50;;;12.77;57.98
71915;BME280;60387;49.994;14.660;2023-02-19T02:53:22;97537.84;;;12.77;57.92
71915;BME280;60387;49.994;14.660;2023-02-19T02:55:57;97527.75;;;12.77;58.14
71915;BME280;60387;49.994;14.660;2023-02-19T02:58:32;97535.13;;;12.77;58.76
71915;BME280;60387;49.994;14.660;2023-02-19T03:01:14;97534.66;;;12.75;58.55
71915;BME280;60387;49.994;14.660;2023-02-19T03:04:02;97522.66;;;12.76;58.59
71915;BME280;60387;49.994;14.660;2023-02-19T03:06:37;97515.63;;;12.75;58.74
71915;BME280;60387;49.994;14.660;2023-02-19T03:09:20;97515.63;;;12.75;58.67
71915;BME280;60387;49.994;14.660;2023-02-19T03:11:58;97515.94;;;12.73;58.61
71915;BME280;60387;49.994;14.660;2023-02-19T03:14:42;97521.84;;;12.75;58.37
71915;BME280;60387;49.994;14.660;2023-02-19T03:17:25;97514.19;;;12.77;58.49
71915;BME280;60387;49.994;14.660;2023-02-19T03:20:05;97514.69;;;12.79;58.50
71915;BME280;60387;49.994;14.660;2023-02-19T03:22:41;97507.78;;;12.73;58.89
71915;BME280;60387;49.994;14.660;2023-02-19T03:25:18;97488.94;;;12.77;58.80
71915;BME280;60387;49.994;14.660;2023-02-19T03:27:55;97482.22;;;12.74;58.31
71915;BME280;60387;49.994;14.660;2023-02-19T03:30:32;97474.53;;;12.76;58.45
71915;BME280;60387;49.994;14.660;2023-02-19T03:33:17;97478.06;;;12.77;58.40
71915;BME280;60387;49.994;14.660;2023-02-19T03:35:59;97462.38;;;12.73;58.27
71915;BME280;60387;49.994;14.660;2023-02-19T03:38:53;97479.19;;;12.76;57.79
71915;BME280;60387;49.994;14.660;2023-02-19T03:41:44;97480.78;;;12.77;57.96
71915;BME280;60387;49.994;14.660;2023-02-19T03:47:17;97471.03;;;12.76;58.22
71915;BME280;60387;49.994;14.660;2023-02-19T03:50:38;97472.16;;;12.75;58.30
71915;BME280;60387;49.994;14.660;2023-02-19T03:58:31;97449.13;;;12.72;58.15
71915;BME280;60387;49.994;14.660;2023-02-19T04:01:23;97469.91;;;12.77;58.06
71915;BME280;60387;49.994;14.660;2023-02-19T04:04:03;97466.06;;;12.77;57.85
71915;BME280;60387;49.994;14.660;2023-02-19T04:06:41;97456.31;;;12.77;57.63
71915;BME280;60387;49.994;14.660;2023-02-19T04:09:16;97463.19;;;12.82;57.46
71915;BME280;60387;49.994;14.660;2023-02-19T04:11:50;97468.44;;;12.87;57.54
71915;BME280;60387;49.994;14.660;2023-02-19T04:14:35;97465.06;;;12.90;57.36
71915;BME280;60387;49.994;14.660;2023-02-19T04:17:44;97479.34;;;12.96;57.20
71915;BME280;60387;49.994;14.660;2023-02-19T04:20:21;97473.09;;;12.95;57.17
71915;BME280;60387;49.994;14.660;2023-02-19T04:22:55;97469.72;;;12.98;57.12
71915;BME280;60387;49.994;14.660;2023-02-19T04:25:30;97461.72;;;12.93;57.16
71915;BME280;60387;49.994;14.660;2023-02-19T04:28:06;97458.88;;;12.98;56.85
71915;BME280;60387;49.994;14.660;2023-02-19T04:30:40;97452.97;;;12.96;57.23
71915;BME280;60387;49.994;14.660;2023-02-19T04:33:13;97456.13;;;12.98;57.22
71915;BME280;60387;49.994;14.660;2023-02-19T04:35:46;97460.50;;;12.99;57.09
71915;BME280;60387;49.994;14.660;2023-02-19T04:38:20;97452.34;;;12.99;57.26
71915;BME280;60387;49.994;14.660;2023-02-19T04:40:53;97441.09;;;13.01;56.99
71915;BME280;60387;49.994;14.660;2023-02-19T04:43:26;97448.94;;;13.02;57.20
71915;BME280;60387;49.994;14.660;2023-02-19T04:46:00;97454.84;;;13.04;57.17
71915;BME280;60387;49.994;14.660;2023-02-19T04:48:34;97454.38;;;13.02;57.13
71915;BME280;60387;49.994;14.660;2023-02-19T04:51:08;97449.25;;;13.01;57.01
71915;BME280;60387;49.994;14.660;2023-02-19T04:53:41;97453.25;;;13.03;56.81
71915;BME280;60387;49.994;14.660;2023-02-19T04:56:15;97453.41;;;13.07;56.83
71915;BME280;60387;49.994;14.660;2023-02-19T04:58:49;97444.94;;;13.08;56.90
71915;BME280;60387;49.994;14.660;2023-02-19T05:01:22;97444.94;;;13.08;57.18
71915;BME280;60387;49.994;14.660;2023-02-19T05:03:56;97433.56;;;13.06;56.91
71915;BME280;60387;49.994;14.660;2023-02-19T05:06:29;97430.69;;;13.03;56.93
71915;BME280;60387;49.994;14.660;2023-02-19T05:09:03;97440.13;;;13.05;56.96
71915;BME280;60387;49.994;14.660;2023-02-19T05:11:36;97440.13;;;13.05;57.21
71915;BME280;60387;49.994;14.660;2023-02-19T05:14:09;97438.69;;;13.08;56.90
71915;BME280;60387;49.994;14.660;2023-02-19T05:16:43;97434.53;;;13.10;56.96
71915;BME280;60387;49.994;14.660;2023-02-19T05:19:16;97443.81;;;13.09;57.04
71915;BME280;60387;49.994;14.660;2023-02-19T05:21:49;97426.84;;;13.12;56.92
71915;BME280;60387;49.994;14.660;2023-02-19T05:24:22;97417.88;;;13.12;57.04
71915;BME280;60387;49.994;14.660;2023-02-19T05:26:56;97416.78;;;13.13;56.91
71915;BME280;60387;49.994;14.660;2023-02-19T05:29:30;97419.34;;;13.09;57.04
71915;BME280;60387;49.994;14.660;2023-02-19T05:32:04;97420.59;;;13.12;56.94
71915;BME280;60387;49.994;14.660;2023-02-19T05:34:37;97423.81;;;13.14;57.09
71915;BME280;60387;49.994;14.660;2023-02-19T05:37:10;97434.84;;;13.17;57.15
71915;BME280;60387;49.994;14.660;2023-02-19T05:39:43;97417.56;;;13.13;57.01
71915;BME280;60387;49.994;14.660;2023-02-19T05:42:17;97421.88;;;13.14;56.82
71915;BME280;60387;49.994;14.660;2023-02-19T05:44:50;97430.53;;;13.16;56.63
71915;BME280;60387;49.994;14.660;2023-02-19T05:47:23;97440.28;;;13.17;56.82
71915;BME280;60387;49.994;14.660;2023-02-19T05:49:57;97433.38;;;13.20;56.80
71915;BME280;60387;49.994;14.660;2023-02-19T05:52:30;97439.31;;;13.22;57.13
71915;BME280;60387;49.994;14.660;2023-02-19T05:55:03;97443.16;;;13.21;56.83
71915;BME280;60387;49.994;14.660;2023-02-19T05:57:41;97445.88;;;13.21;57.24
71915;BME280;60387;49.994;14.660;2023-02-19T06:00:16;97447.78;;;13.20;57.11
71915;BME280;60387;49.994;14.660;2023-02-19T06:02:50;97443.47;;;13.19;57.21
71915;BME280;60387;49.994;14.660;2023-02-19T06:05:23;97441.41;;;13.16;57.34
71915;BME280;60387;49.994;14.660;2023-02-19T06:07:56;97439.63;;;13.20;57.51
71915;BME280;60387;49.994;14.660;2023-02-19T06:10:30;97432.75;;;13.14;57.17
71915;BME280;60387;49.994;14.660;2023-02-19T06:13:03;97433.72;;;13.18;57.28
71915;BME280;60387;49.994;14.660;2023-02-19T06:15:36;97440.75;;;13.19;56.85
71915;BME280;60387;49.994;14.660;2023-02-19T06:18:10;97436.09;;;13.20;57.08
71915;BME280;60387;49.994;14.660;2023-02-19T06:20:43;97439.63;;;13.20;57.40
71915;BME280;60387;49.994;14.660;2023-02-19T06:23:16;97428.59;;;13.17;57.04
71915;BME280;60387;49.994;14.660;2023-02-19T06:25:50;97435.97;;;13.16;57.28
71915;BME280;60387;49.994;14.660;2023-02-19T06:28:23;97422.22;;;13.13;57.18
71915;BME280;60387;49.994;14.660;2023-02-19T06:30:59;97432.91;;;13.18;57.09
71915;BME280;60387;49.994;14.660;2023-02-19T06:33:33;97436.75;;;13.17;57.26
71915;BME280;60387;49.994;14.660;2023-02-19T06:36:15;97432.13;;;13.17;56.98
71915;BME280;60387;49.994;14.660;2023-02-19T06:38:49;97427.16;;;13.19;57.08
71915;BME280;60387;49.994;14.660;2023-02-19T06:41:23;97427.00;;;13.16;56.90
71915;BME280;60387;49.994;14.660;2023-02-19T06:43:57;97421.25;;;13.17;57.00
71915;BME280;60387;49.994;14.660;2023-02-19T06:46:30;97429.88;;;13.19;56.99
71915;BME280;60387;49.994;14.660;2023-02-19T06:49:04;97431.16;;;13.22;57.50
71915;BME280;60387;49.994;14.660;2023-02-19T06:51:37;97420.75;;;13.24;56.98
71915;BME280;60387;49.994;14.660;2023-02-19T06:54:11;97434.28;;;13.32;56.98
71915;BME280;60387;49.994;14.660;2023-02-19T06:56:44;97433.66;;;13.35;56.78
71915;BME280;60387;49.994;14.660;2023-02-19T06:59:17;97430.59;;;13.37;56.60
71915;BME280;60387;49.994;14.660;2023-02-19T07:01:51;97431.88;;;13.39;56.75
71915;BME280;60387;49.994;14.660;2023-02-19T07:04:24;97424.53;;;13.40;56.66
71915;BME280;60387;49.994;14.660;2023-02-19T07:06:57;97434.75;;;13.43;56.58
71915;BME280;60387;49.994;14.660;2023-02-19T07:09:31;97433.78;;;13.47;56.53
71915;BME280;60387;49.994;14.660;2023-02-19T07:12:04;97435.72;;;13.47;56.31
71915;BME280;60387;49.994;14.660;2023-02-19T07:14:38;97436.50;;;13.47;56.13
71915;BME280;60387;49.994;14.660;2023-02-19T07:17:11;97438.09;;;13.48;56.30
71915;BME280;60387;49.994;14.660;2023-02-19T07:19:44;97442.75;;;13.48;56.19
71915;BME280;60387;49.994;14.660;2023-02-19T07:22:17;97442.75;;;13.48;56.39
71915;BME280;60387;49.994;14.660;2023-02-19T07:24:51;97449.94;;;13.52;56.28
71915;BME280;60387;49.994;14.660;2023-02-19T07:27:24;97448.34;;;13.51;56.29
71915;BME280;60387;49.994;14.660;2023-02-19T07:29:57;97454.25;;;13.53;56.31
71915;BME280;60387;49.994;14.660;2023-02-19T07:32:30;97456.97;;;13.53;56.05
71915;BME280;60387;49.994;14.660;2023-02-19T07:35:04;97460.00;;;13.52;56.22
71915;BME280;60387;49.994;14.660;2023-02-19T07:37:39;97471.03;;;13.55;55.78
71915;BME280;60387;49.994;14.660;2023-02-19T07:40:13;97462.88;;;13.55;55.81
71915;BME280;60387;49.994;14.660;2023-02-19T07:42:46;97470.38;;;13.58;55.68
71915;BME280;60387;49.994;14.660;2023-02-19T07:45:19;97464.81;;;13.55;55.84
71915;BME280;60387;49.994;14.660;2023-02-19T07:47:53;97475.50;;;13.60;55.87
71915;BME280;60387;49.994;14.660;2023-02-19T07:50:26;97486.84;;;13.62;55.55
71915;BME280;60387;49.994;14.660;2023-02-19T07:52:59;97481.25;;;13.58;55.35
71915;BME280;60387;49.994;14.660;2023-02-19T07:55:33;97493.25;;;13.66;55.22
71915;BME280;60387;49.994;14.660;2023-02-19T07:58:06;97487.81;;;13.57;55.29
71915;BME280;60387;49.994;14.660;2023-02-19T08:00:40;97495.50;;;13.64;55.39
71915;BME280;60387;49.994;14.660;2023-02-19T08:03:13;97501.75;;;13.64;55.39
71915;BME280;60387;49.994;14.660;2023-02-19T08:05:47;97505.59;;;13.63;55.48
71915;BME280;60387;49.994;14.660;2023-02-19T08:08:20;97512.13;;;13.71;55.75
71915;BME280;60387;49.994;14.660;2023-02-19T08:10:53;97515.47;;;13.76;55.64
71915;BME280;60387;49.994;14.660;2023-02-19T08:13:28;97520.06;;;13.84;54.90
71915;BME280;60387;49.994;14.660;2023-02-19T08:18:35;97526.63;;;13.83;55.66
71915;BME280;60387;49.994;14.660;2023-02-19T08:21:09;97539.13;;;13.84;55.75
71915;BME280;60387;49.994;14.660;2023-02-19T08:23:42;97549.13;;;13.72;56.81
71915;BME280;60387;49.994;14.660;2023-02-19T08:26:15;97549.13;;;13.63;56.79
71915;BME280;60387;49.994;14.660;2023-02-19T08:28:49;97557.47;;;13.58;57.28
71915;BME280;60387;49.994;14.660;2023-02-19T08:31:22;97556.88;;;13.44;58.38
71915;BME280;60387;49.994;14.660;2023-02-19T08:33:55;97552.41;;;13.31;58.89
71915;BME280;60387;49.994;14.660;2023-02-19T08:36:29;97559.63;;;13.27;59.15
71915;BME280;60387;49.994;14.660;2023-02-19T08:39:02;97554.16;;;13.19;58.22
71915;BME280;60387;49.994;14.660;2023-02-19T08:41:35;97567.94;;;13.14;58.10
71915;BME280;60387;49.994;14.660;2023-02-19T08:44:09;97574.19;;;13.14;58.99
71915;BME280;60387;49.994;14.660;2023-02-19T08:46:42;97576.25;;;13.09;59.85
71915;BME280;60387;49.994;14.660;2023-02-19T08:49:15;97568.59;;;13.02;59.73
71915;BME280;60387;49.994;14.660;2023-02-19T08:51:48;97550.34;;;12.94;59.79
71915;BME280;60387;49.994;14.660;2023-02-19T08:54:22;97571.63;;;13.01;59.57
71915;BME280;60387;49.994;14.660;2023-02-19T08:56:55;97562.03;;;13.03;59.74
71915;BME280;60387;49.994;14.660;2023-02-19T08:59:28;97568.41;;;13.07;59.52
71915;BME280;60387;49.994;14.660;2023-02-19T09:02:02;97570.97;;;13.12;59.86
71915;BME280;60387;49.994;14.660;2023-02-19T09:04:35;97564.59;;;13.17;60.35
71915;BME280;60387;49.994;14.660;2023-02-19T09:07:10;97570.84;;;13.17;60.44
71915;BME280;60387;49.994;14.660;2023-02-19T09:09:44;97564.09;;;13.23;60.35
71915;BME280;60387;49.994;14.660;2023-02-19T09:12:17;97565.53;;;13.29;60.25
71915;BME280;60387;49.994;14.660;2023-02-19T09:14:50;97566.34;;;13.30;59.88
71915;BME280;60387;49.994;14.660;2023-02-19T09:17:24;97582.81;;;13.33;60.08
71915;BME280;60387;49.994;14.660;2023-02-19T09:19:57;97583.28;;;13.35;59.44
71915;BME280;60387;49.994;14.660;2023-02-19T09:22:31;97571.28;;;13.36;59.90
71915;BME280;60387;49.994;14.660;2023-02-19T09:25:04;97586.97;;;13.39;59.57
71915;BME280;60387;49.994;14.660;2023-02-19T09:27:38;97584.25;;;13.39;59.85
71915;BME280;60387;49.994;14.660;2023-02-19T09:30:11;97588.72;;;13.44;59.35
71915;BME280;60387;49.994;14.660;2023-02-19T09:32:44;97593.53;;;13.47;60.10
71915;BME280;60387;49.994;14.660;2023-02-19T09:35:18;97582.94;;;13.37;60.01
71915;BME280;60387;49.994;14.660;2023-02-19T09:37:51;97610.00;;;13.42;59.37
71915;BME280;60387;49.994;14.660;2023-02-19T09:40:24;97610.31;;;13.40;59.44
71915;BME280;60387;49.994;14.660;2023-02-19T09:42:58;97606.34;;;13.38;59.65
71915;BME280;60387;49.994;14.660;2023-02-19T09:45:31;97590.66;;;13.35;59.78
71915;BME280;60387;49.994;14.660;2023-02-19T09:48:08;97606.81;;;13.31;59.26
71915;BME280;60387;49.994;14.660;2023-02-19T09:50:46;97622.50;;;13.34;59.59
71915;BME280;60387;49.994;14.660;2023-02-19T09:53:23;97619.78;;;13.34;59.17
71915;BME280;60387;49.994;14.660;2023-02-19T09:55:57;97633.69;;;13.41;59.38
71915;BME280;60387;49.994;14.660;2023-02-19T09:58:54;97634.03;;;13.40;59.45
71915;BME280;60387;49.994;14.660;2023-02-19T10:01:31;97628.25;;;13.41;59.59
71915;BME280;60387;49.994;14.660;2023-02-19T10:04:09;97631.47;;;13.43;59.55
71915;BME280;60387;49.994;14.660;2023-02-19T10:06:43;97644.72;;;13.45;59.67
71915;BME280;60387;49.994;14.660;2023-02-19T10:09:23;97630.81;;;13.46;59.54
71915;BME280;60387;49.994;14.660;2023-02-19T10:11:57;97642.34;;;13.43;59.30
71915;BME280;60387;49.994;14.660;2023-02-19T10:17:05;97639.13;;;13.41;58.89
71915;BME280;60387;49.994;14.660;2023-02-19T10:19:38;97641.53;;;13.43;59.07
71915;BME280;60387;49.994;14.660;2023-02-19T10:22:12;97647.47;;;13.36;59.66
71915;BME280;60387;49.994;14.660;2023-02-19T10:24:49;97655.63;;;13.36;58.96
71915;BME280;60387;49.994;14.660;2023-02-19T10:27:30;97662.34;;;13.30;59.27
71915;BME280;60387;49.994;14.660;2023-02-19T10:30:04;97662.19;;;13.27;59.27
71915;BME280;60387;49.994;14.660;2023-02-19T10:35:35;97657.22;;;13.20;59.26
71915;BME280;60387;49.994;14.660;2023-02-19T10:38:15;97663.63;;;13.16;59.78
71915;BME280;60387;49.994;14.660;2023-02-19T10:40:56;97661.03;;;13.11;59.82
71915;BME280;60387;49.994;14.660;2023-02-19T10:43:36;97669.53;;;13.09;59.80
71915;BME280;60387;49.994;14.660;2023-02-19T10:46:16;97674.81;;;13.06;59.92
71915;BME280;60387;49.994;14.660;2023-02-19T10:48:54;97681.03;;;13.06;59.68
71915;BME280;60387;49.994;14.660;2023-02-19T10:51:31;97680.09;;;13.02;59.21
71915;BME280;60387;49.994;14.660;2023-02-19T10:54:24;97686.16;;;12.99;59.86
71915;BME280;60387;49.994;14.660;2023-02-19T11:03:13;97700.16;;;12.93;59.67
71915;BME280;60387;49.994;14.660;2023-02-19T11:05:56;97703.72;;;12.93;60.62
71915;BME280;60387;49.994;14.660;2023-02-19T11:11:30;97712.63;;;12.85;60.62
71915;BME280;60387;49.994;14.660;2023-02-19T11:14:14;97712.63;;;12.85;60.75
71915;BME280;60387;49.994;14.660;2023-02-19T11:16:51;97715.84;;;12.87;61.04
71915;BME280;60387;49.994;14.660;2023-02-19T11:19:43;97719.38;;;12.88;60.60
71915;BME280;60387;49.994;14.660;2023-02-19T11:24:51;97732.78;;;12.84;60.28
71915;BME280;60387;49.994;14.660;2023-02-19T11:27:24;97734.69;;;12.76;60.53
71915;BME280;60387;49.994;14.660;2023-02-19T11:33:25;97761.69;;;12.72;60.83
71915;BME280;60387;49.994;14.660;2023-02-19T11:38:47;97754.81;;;12.75;60.71
71915;BME280;60387;49.994;14.660;2023-02-19T11:41:29;97764.25;;;12.77;60.34
71915;BME280;60387;49.994;14.660;2023-02-19T11:44:32;97764.41;;;12.80;60.49
71915;BME280;60387;49.994;14.660;2023-02-19T11:47:35;97772.09;;;12.78;60.03
71915;BME280;60387;49.994;14.660;2023-02-19T11:50:42;97779.59;;;12.81;60.71
71915;BME280;60387;49.994;14.660;2023-02-19T11:59:11;97790.63;;;12.77;59.68
71915;BME280;60387;49.994;14.660;2023-02-19T12:04:43;97798.72;;;12.60;59.46
71915;BME280;60387;49.994;14.660;2023-02-19T12:41:33;97866.75;;;11.75;58.62
71915;BME280;60387;49.994;14.660;2023-02-19T12:47:23;97878.63;;;11.79;57.90
71915;BME280;60387;49.994;14.660;2023-02-19T12:50:02;97893.28;;;11.78;58.38
71915;BME280;60387;49.994;14.660;2023-02-19T12:52:41;97883.34;;;11.74;58.51
71915;BME280;60387;49.994;14.660;2023-02-19T12:55:30;97895.00;;;11.74;57.91
71915;BME280;60387;49.994;14.660;2023-02-19T12:58:05;97900.53;;;11.69;57.87
71915;BME280;60387;49.994;14.660;2023-02-19T13:00:47;97894.91;;;11.66;58.22
71915;BME280;60387;49.994;14.660;2023-02-19T13:03:29;97892.00;;;11.62;58.70
71915;BME280;60387;49.994;14.660;2023-02-19T13:09:14;97901.72;;;11.50;57.95
71915;BME280;60387;49.994;14.660;2023-02-19T13:12:07;97918.78;;;11.37;56.54
71915;BME280;60387;49.994;14.660;2023-02-19T13:14:56;97929.34;;;11.25;56.37
71915;BME280;60387;49.994;14.660;2023-02-19T13:17:37;97930.34;;;11.15;56.61
71915;BME280;60387;49.994;14.660;2023-02-19T13:20:29;97918.69;;;11.01;56.80
71915;BME280;60387;49.994;14.660;2023-02-19T13:23:27;97909.31;;;10.94;56.33
71915;BME280;60387;49.994;14.660;2023-02-19T13:26:36;97925.06;;;10.92;57.11
71915;BME280;60387;49.994;14.660;2023-02-19T13:33:01;97932.50;;;10.86;56.67
71915;BME280;60387;49.994;14.660;2023-02-19T13:38:28;97938.63;;;10.92;56.58
71915;BME280;60387;49.994;14.660;2023-02-19T13:41:03;97946.16;;;10.95;56.31
71915;BME280;60387;49.994;14.660;2023-02-19T13:43:36;97955.09;;;10.95;56.01
71915;BME280;60387;49.994;14.660;2023-02-19T13:46:11;97963.88;;;11.06;56.50
71915;BME280;60387;49.994;14.660;2023-02-19T13:48:45;97968.28;;;11.15;56.63
71915;BME280;60387;49.994;14.660;2023-02-19T14:17:43;97988.50;;;11.23;54.42
71915;BME280;60387;49.994;14.660;2023-02-19T14:20:40;98004.28;;;11.21;53.79
71915;BME280;60387;49.994;14.660;2023-02-19T14:23:16;97995.50;;;11.10;53.64
71915;BME280;60387;49.994;14.660;2023-02-19T14:25:58;98010.75;;;11.06;53.46
71915;BME280;60387;49.994;14.660;2023-02-19T14:28:35;98005.09;;;11.03;53.80
71915;BME280;60387;49.994;14.660;2023-02-19T14:33:46;98024.69;;;11.00;54.25
71915;BME280;60387;49.994;14.660;2023-02-19T14:36:41;98023.38;;;10.97;53.23
71915;BME280;60387;49.994;14.660;2023-02-19T14:39:28;98038.41;;;10.90;53.48
71915;BME280;60387;49.994;14.660;2023-02-19T14:42:15;98032.84;;;10.81;53.19
71915;BME280;60387;49.994;14.660;2023-02-19T14:44:52;98027.56;;;10.71;52.86
71915;BME280;60387;49.994;14.660;2023-02-19T14:47:29;98029.34;;;10.62;53.20
71915;BME280;60387;49.994;14.660;2023-02-19T14:50:07;98026.50;;;10.54;53.11
71915;BME280;60387;49.994;14.660;2023-02-19T14:52:50;98032.81;;;10.49;53.44
71915;BME280;60387;49.994;14.660;2023-02-19T14:55:31;98036.59;;;10.48;53.26
71915;BME280;60387;49.994;14.660;2023-02-19T14:58:10;98033.38;;;10.46;53.61
71915;BME280;60387;49.994;14.660;2023-02-19T15:00:45;98036.38;;;10.45;54.20
71915;BME280;60387;49.994;14.660;2023-02-19T15:03:37;98040.69;;;10.46;54.08
71915;BME280;60387;49.994;14.660;2023-02-19T15:06:13;98053.16;;;10.47;53.91
71915;BME280;60387;49.994;14.660;2023-02-19T15:08:50;98040.19;;;10.44;54.28
71915;BME280;60387;49.994;14.660;2023-02-19T15:11:27;98045.00;;;10.47;54.21
71915;BME280;60387;49.994;14.660;2023-02-19T15:14:04;98052.03;;;10.48;53.75
71915;BME280;60387;49.994;14.660;2023-02-19T15:16:38;98042.91;;;10.44;53.75
71915;BME280;60387;49.994;14.660;2023-02-19T15:19:13;98059.16;;;10.44;53.95
71915;BME280;60387;49.994;14.660;2023-02-19T15:21:48;98071.41;;;10.36;54.40
71915;BME280;60387;49.994;14.660;2023-02-19T15:24:22;98080.69;;;10.30;54.27
71915;BME280;60387;49.994;14.660;2023-02-19T15:26:55;98072.94;;;10.24;54.29
71915;BME280;60387;49.994;14.660;2023-02-19T15:29:28;98080.31;;;10.18;53.89
71915;BME280;60387;49.994;14.660;2023-02-19T15:32:17;98082.88;;;10.10;54.27
71915;BME280;60387;49.994;14.660;2023-02-19T15:35:00;98093.16;;;10.08;54.36
71915;BME280;60387;49.994;14.660;2023-02-19T15:37:34;98087.00;;;10.02;54.46
71915;BME280;60387;49.994;14.660;2023-02-19T15:40:12;98091.91;;;9.95;54.41
71915;BME280;60387;49.994;14.660;2023-02-19T15:42:46;98112.56;;;9.91;54.90
71915;BME280;60387;49.994;14.660;2023-02-19T15:45:40;98110.72;;;9.87;55.16
71915;BME280;60387;49.994;14.660;2023-02-19T15:48:19;98117.75;;;9.83;54.94